Time;durP1;ratioP1;P1;durP2;ratioP2;P2;SDS_P1;SDS_P2;PMS_P1;PMS_P2;Temp;Humidity;BMP_temperature;BMP_pressure;BME280_temperature;BME280_humidity;BME280_pressure;Samples;Min_cycle;Max_cycle;Signal;HPM_P1;HPM_P2
2021/07/23 00:01:18;;;;;;;21.35;15.60;;;17.10;99.90;;;;;;5011254;28;20100;-78
2021/07/23 00:03:43;;;;;;;21.15;14.70;;;17.00;99.90;;;;;;5003777;28;20041;-78
2021/07/23 00:06:09;;;;;;;25.10;14.15;;;17.00;99.90;;;;;;4988210;28;20422;-78
2021/07/23 00:08:34;;;;;;;21.65;13.82;;;17.00;99.90;;;;;;4989521;28;20100;-79
2021/07/23 00:11:00;;;;;;;18.48;14.02;;;16.90;99.90;;;;;;4989428;28;20049;-78
2021/07/23 00:13:25;;;;;;;19.02;14.77;;;16.90;99.90;;;;;;4993757;28;20382;-79
2021/07/23 00:15:51;;;;;;;19.55;14.55;;;16.90;99.90;;;;;;5007364;28;20083;-78
2021/07/23 00:18:17;;;;;;;19.90;14.95;;;16.90;99.90;;;;;;4989824;28;20118;-79
2021/07/23 00:20:42;;;;;;;20.95;14.48;;;16.80;99.90;;;;;;4988180;28;20029;-79
2021/07/23 00:23:08;;;;;;;23.42;14.68;;;16.80;99.90;;;;;;4988115;28;20065;-78
2021/07/23 00:25:37;;;;;;;19.58;14.30;;;16.80;99.90;;;;;;4987539;28;20109;-78
2021/07/23 00:28:03;;;;;;;20.30;13.93;;;16.80;99.90;;;;;;4988840;28;20026;-78
2021/07/23 00:30:28;;;;;;;22.20;15.48;;;16.70;99.90;;;;;;4989030;28;20034;-78
2021/07/23 00:32:54;;;;;;;21.20;14.68;;;16.70;99.90;;;;;;4989078;28;20027;-78
2021/07/23 00:35:21;;;;;;;19.63;14.27;;;16.70;99.90;;;;;;4989125;28;20117;-78
2021/07/23 00:37:46;;;;;;;19.88;14.25;;;16.70;99.90;;;;;;4989148;28;20500;-78
2021/07/23 00:40:12;;;;;;;20.15;15.35;;;16.60;99.90;;;;;;4988547;28;20101;-78
2021/07/23 00:42:42;;;;;;;23.42;15.38;;;16.60;99.90;;;;;;4988806;28;20427;-78
2021/07/23 00:45:09;;;;;;;20.92;15.15;;;16.60;99.90;;;;;;4989188;28;20474;-79
2021/07/23 00:47:40;;;;;;;21.73;14.77;;;16.50;99.90;;;;;;4988596;28;20030;-78
2021/07/23 00:50:06;;;;;;;22.10;15.95;;;16.50;99.90;;;;;;4988629;28;20052;-78
2021/07/23 00:52:32;;;;;;;22.35;15.27;;;16.50;99.90;;;;;;4987832;28;20030;-78
2021/07/23 00:54:59;;;;;;;21.98;14.93;;;16.50;99.90;;;;;;4988721;28;20049;-79
2021/07/23 00:57:25;;;;;;;22.52;15.68;;;16.40;99.90;;;;;;4988785;28;20030;-78
2021/07/23 00:59:51;;;;;;;22.13;15.40;;;16.40;99.90;;;;;;5001768;28;20030;-79
2021/07/23 01:02:17;;;;;;;21.33;15.10;;;16.40;99.90;;;;;;5027998;28;20110;-80
2021/07/23 01:04:44;;;;;;;24.77;16.15;;;16.30;99.90;;;;;;5027643;28;20519;-79
2021/07/23 01:07:12;;;;;;;22.65;16.30;;;16.30;99.90;;;;;;5033394;28;20489;-78
2021/07/23 01:09:37;;;;;;;17.60;14.48;;;16.20;99.90;;;;;;5027811;28;20033;-79
2021/07/23 01:12:04;;;;;;;20.65;15.65;;;16.20;99.90;;;;;;5027869;28;20052;-78
2021/07/23 01:14:29;;;;;;;22.60;14.88;;;16.20;99.90;;;;;;5026999;28;20478;-79
2021/07/23 01:16:55;;;;;;;24.05;14.93;;;16.20;99.90;;;;;;5027424;28;20041;-78
2021/07/23 01:19:26;;;;;;;26.48;16.23;;;16.10;99.90;;;;;;5027154;28;20830;-78
2021/07/23 01:21:54;;;;;;;24.23;15.90;;;16.10;99.90;;;;;;5027198;28;20049;-78
2021/07/23 01:24:21;;;;;;;23.05;16.98;;;16.10;99.90;;;;;;5027498;28;20026;-79
2021/07/23 01:26:50;;;;;;;20.55;16.05;;;16.10;99.90;;;;;;5027485;28;20026;-78
2021/07/23 01:29:15;;;;;;;22.50;15.27;;;16.10;99.90;;;;;;5027732;28;20029;-79
2021/07/23 01:31:41;;;;;;;20.42;16.08;;;16.10;99.90;;;;;;5009340;28;20099;-79
2021/07/23 01:34:06;;;;;;;23.02;15.82;;;16.00;99.90;;;;;;5027221;28;20038;-78
2021/07/23 01:36:32;;;;;;;17.70;13.52;;;16.00;99.90;;;;;;5041121;28;20113;-78
2021/07/23 01:38:59;;;;;;;21.23;16.00;;;16.00;99.90;;;;;;5027212;28;20061;-78
2021/07/23 01:41:24;;;;;;;22.52;16.13;;;16.00;99.90;;;;;;5027077;28;20083;-78
2021/07/23 01:43:50;;;;;;;21.05;15.75;;;15.90;99.90;;;;;;5027207;28;20475;-78
2021/07/23 01:46:16;;;;;;;25.88;15.85;;;16.00;99.90;;;;;;5023271;28;20033;-78
2021/07/23 01:48:41;;;;;;;20.17;15.57;;;15.90;99.90;;;;;;5040990;28;20047;-79
2021/07/23 01:51:08;;;;;;;21.63;15.32;;;15.90;99.90;;;;;;5027165;28;20525;-78
2021/07/23 01:53:34;;;;;;;19.05;14.35;;;15.90;99.90;;;;;;5026848;28;20025;-78
2021/07/23 01:56:00;;;;;;;21.08;15.65;;;15.80;99.90;;;;;;5026858;28;20025;-78
2021/07/23 01:58:26;;;;;;;20.88;15.20;;;15.80;99.90;;;;;;5026947;28;20052;-78
2021/07/23 02:00:57;;;;;;;21.30;16.30;;;15.80;99.90;;;;;;5027078;28;20101;-78
2021/07/23 02:03:22;;;;;;;18.92;15.00;;;15.80;99.90;;;;;;5027486;28;20029;-79
2021/07/23 02:05:48;;;;;;;20.60;15.38;;;15.70;99.90;;;;;;5040524;28;20500;-78
2021/07/23 02:08:14;;;;;;;23.58;15.02;;;15.70;99.90;;;;;;5032825;28;20037;-78
2021/07/23 02:10:48;;;;;;;23.13;14.18;;;15.60;99.90;;;;;;5026595;28;20047;-78
2021/07/23 02:13:14;;;;;;;21.98;13.75;;;15.60;99.90;;;;;;5014107;28;20029;-78
2021/07/23 02:15:41;;;;;;;20.85;13.93;;;15.50;99.90;;;;;;5038862;28;20437;-78
2021/07/23 02:18:07;;;;;;;17.98;13.55;;;15.50;99.90;;;;;;5026738;28;20381;-78
2021/07/23 02:20:32;;;;;;;19.48;14.18;;;15.40;99.90;;;;;;5026811;28;20120;-78
2021/07/23 02:22:58;;;;;;;18.90;12.85;;;15.50;99.90;;;;;;5026570;28;20339;-78
2021/07/23 02:25:24;;;;;;;24.30;14.18;;;15.40;99.90;;;;;;5026644;28;20104;-78
2021/07/23 02:27:49;;;;;;;23.88;14.07;;;15.40;99.90;;;;;;5028632;28;20029;-78
2021/07/23 02:30:15;;;;;;;19.98;14.90;;;15.40;99.90;;;;;;5028437;28;20082;-78
2021/07/23 02:32:41;;;;;;;19.70;15.38;;;15.40;99.90;;;;;;5032696;28;20025;-79
2021/07/23 02:35:07;;;;;;;23.88;15.10;;;15.40;99.90;;;;;;5026261;28;20037;-78
2021/07/23 02:37:33;;;;;;;22.65;16.08;;;15.40;99.90;;;;;;5026689;28;20034;-79
2021/07/23 02:39:59;;;;;;;21.63;15.32;;;15.30;99.90;;;;;;5030288;28;20021;-79
2021/07/23 02:42:25;;;;;;;18.80;14.80;;;15.30;99.90;;;;;;5036454;28;20036;-79
2021/07/23 02:44:51;;;;;;;25.15;16.17;;;15.30;99.90;;;;;;5026418;28;20029;-78
2021/07/23 02:47:16;;;;;;;24.67;15.77;;;15.30;99.90;;;;;;5032391;28;20026;-79
2021/07/23 02:49:42;;;;;;;23.77;15.85;;;15.20;99.90;;;;;;5026494;28;20025;-78
2021/07/23 02:52:07;;;;;;;22.60;15.65;;;15.20;99.90;;;;;;5040375;28;20036;-78
2021/07/23 02:54:33;;;;;;;20.58;16.02;;;15.20;99.90;;;;;;5026489;28;20105;-78
2021/07/23 02:56:59;;;;;;;23.42;14.82;;;15.20;99.90;;;;;;5008305;28;20029;-79
2021/07/23 02:59:24;;;;;;;19.83;14.82;;;15.10;99.90;;;;;;5026676;28;20025;-78
2021/07/23 03:01:50;;;;;;;24.05;15.52;;;15.10;99.90;;;;;;5025959;28;20056;-78
2021/07/23 03:04:15;;;;;;;26.23;16.73;;;15.10;99.90;;;;;;5026755;28;20030;-79
2021/07/23 03:06:41;;;;;;;21.75;14.68;;;15.10;99.90;;;;;;5030725;28;20096;-78
2021/07/23 03:09:06;;;;;;;22.23;16.15;;;15.10;99.90;;;;;;5026420;28;20116;-79
2021/07/23 03:11:32;;;;;;;23.52;17.30;;;15.10;99.90;;;;;;5038902;28;20044;-78
2021/07/23 03:13:58;;;;;;;22.58;16.85;;;15.10;99.90;;;;;;5034878;28;20038;-79
2021/07/23 03:16:24;;;;;;;19.85;15.57;;;15.10;99.90;;;;;;5038695;28;20560;-78
2021/07/23 03:18:50;;;;;;;22.80;15.73;;;15.00;99.90;;;;;;5014975;28;20133;-78
2021/07/23 03:21:22;;;;;;;20.77;15.82;;;15.00;99.90;;;;;;5029790;28;20031;-78
2021/07/23 03:23:48;;;;;;;23.70;17.05;;;15.00;99.90;;;;;;5012000;28;20039;-79
2021/07/23 03:26:14;;;;;;;21.27;16.13;;;15.00;99.90;;;;;;5030013;28;20033;-78
2021/07/23 03:28:39;;;;;;;21.13;15.73;;;15.00;99.90;;;;;;5029552;28;20090;-78
2021/07/23 03:31:10;;;;;;;18.98;15.05;;;15.00;99.90;;;;;;5035021;28;20819;-78
2021/07/23 03:33:35;;;;;;;21.80;15.00;;;15.00;99.90;;;;;;5049826;28;20033;-78
2021/07/23 03:36:01;;;;;;;17.55;14.57;;;14.90;99.90;;;;;;5031564;28;20033;-78
2021/07/23 03:38:26;;;;;;;19.85;15.30;;;14.90;99.90;;;;;;5029605;28;20060;-79
2021/07/23 03:40:52;;;;;;;23.10;15.70;;;14.90;99.90;;;;;;5029427;28;20029;-78
2021/07/23 03:43:17;;;;;;;18.45;14.50;;;14.80;99.90;;;;;;5029657;28;20043;-78
2021/07/23 03:45:43;;;;;;;20.90;14.57;;;14.80;99.90;;;;;;5043435;28;20056;-78
2021/07/23 03:48:08;;;;;;;17.75;13.63;;;14.80;99.90;;;;;;5029436;28;20037;-78
2021/07/23 03:50:34;;;;;;;22.13;16.08;;;14.70;99.90;;;;;;5029081;28;20385;-78
2021/07/23 03:52:59;;;;;;;25.52;17.33;;;14.70;99.90;;;;;;5029056;28;20478;-78
2021/07/23 03:55:25;;;;;;;21.73;15.43;;;14.70;99.90;;;;;;5029502;28;20046;-78
2021/07/23 03:57:51;;;;;;;27.83;16.70;;;14.70;99.90;;;;;;5029483;28;20022;-78
2021/07/23 04:00:17;;;;;;;22.65;16.52;;;14.70;99.90;;;;;;5035982;28;20021;-78
2021/07/23 04:02:43;;;;;;;22.08;14.80;;;14.70;99.90;;;;;;5036012;28;20057;-78
2021/07/23 04:05:09;;;;;;;23.38;16.42;;;14.70;99.90;;;;;;5028940;28;20324;-79
2021/07/23 04:07:34;;;;;;;24.05;16.70;;;14.60;99.90;;;;;;5031506;28;20061;-78
2021/07/23 04:10:01;;;;;;;22.17;16.10;;;14.70;99.90;;;;;;5031802;28;20061;-78
2021/07/23 04:12:26;;;;;;;22.30;15.88;;;14.70;99.90;;;;;;5039959;28;20030;-78
2021/07/23 04:14:52;;;;;;;21.83;14.25;;;14.70;99.90;;;;;;5031756;28;20059;-79
2021/07/23 04:17:18;;;;;;;21.20;15.48;;;14.80;99.90;;;;;;5039284;28;20041;-79
2021/07/23 04:19:43;;;;;;;23.50;15.07;;;14.80;99.90;;;;;;5028262;28;20029;-78
2021/07/23 04:22:09;;;;;;;21.75;15.43;;;14.90;99.90;;;;;;5043577;28;20469;-78
2021/07/23 04:24:36;;;;;;;21.77;14.70;;;14.90;99.90;;;;;;5027097;28;20052;-78
2021/07/23 04:27:01;;;;;;;24.98;16.85;;;14.90;99.90;;;;;;5046247;28;20046;-78
2021/07/23 04:29:27;;;;;;;21.70;14.88;;;15.00;99.90;;;;;;5044069;28;20025;-78
2021/07/23 04:31:52;;;;;;;20.15;14.65;;;15.00;99.90;;;;;;5047482;28;20029;-78
2021/07/23 04:34:18;;;;;;;22.25;16.35;;;15.10;99.90;;;;;;5044682;28;20028;-78
2021/07/23 04:36:43;;;;;;;21.35;16.63;;;15.20;99.90;;;;;;5036266;28;20017;-78
2021/07/23 04:39:09;;;;;;;22.02;15.82;;;15.30;99.90;;;;;;5047092;28;20374;-78
2021/07/23 04:41:34;;;;;;;24.65;16.52;;;15.30;99.90;;;;;;5037618;28;20466;-78
2021/07/23 04:44:00;;;;;;;22.05;16.92;;;15.40;99.90;;;;;;5046457;28;20009;-79
2021/07/23 04:46:26;;;;;;;24.60;15.98;;;15.50;99.90;;;;;;5029948;28;20025;-78
2021/07/23 04:48:51;;;;;;;22.15;16.17;;;15.50;99.90;;;;;;5035361;28;20033;-78
2021/07/23 04:51:17;;;;;;;25.25;16.20;;;15.60;99.90;;;;;;5035039;28;20029;-79
2021/07/23 04:53:42;;;;;;;22.63;16.67;;;15.70;99.90;;;;;;5036768;28;20795;-78
2021/07/23 04:56:08;;;;;;;21.85;16.33;;;15.70;99.90;;;;;;5045319;28;20098;-79
2021/07/23 04:58:33;;;;;;;22.27;16.67;;;15.80;99.90;;;;;;5030409;28;20024;-78
2021/07/23 05:00:59;;;;;;;23.67;16.30;;;15.80;99.90;;;;;;5048321;28;20367;-77
2021/07/23 05:03:37;;;;;;;23.48;16.25;;;15.90;99.90;;;;;;5049385;28;20025;-81
2021/07/23 05:06:07;;;;;;;20.23;15.45;;;15.90;99.90;;;;;;5048143;28;20036;-81
2021/07/23 05:08:34;;;;;;;23.92;15.73;;;16.00;99.90;;;;;;5030800;28;20103;-78
2021/07/23 05:11:01;;;;;;;21.10;14.45;;;16.10;99.90;;;;;;5048686;28;20032;-81
2021/07/23 05:13:29;;;;;;;23.10;15.57;;;16.10;99.90;;;;;;5054238;28;20087;-72
2021/07/23 05:15:54;;;;;;;19.90;15.15;;;16.10;99.90;;;;;;5046763;28;20036;-78
2021/07/23 05:18:21;;;;;;;19.98;15.85;;;16.10;99.90;;;;;;5047591;28;20402;-78
2021/07/23 05:20:47;;;;;;;23.63;16.58;;;16.20;99.90;;;;;;5046678;28;20027;-79
2021/07/23 05:23:12;;;;;;;21.83;15.85;;;16.30;99.90;;;;;;5051079;28;20029;-73
2021/07/23 05:25:38;;;;;;;22.00;16.35;;;16.40;99.90;;;;;;5054028;28;20375;-73
2021/07/23 05:28:04;;;;;;;22.65;16.25;;;16.50;99.90;;;;;;5054264;28;20021;-73
2021/07/23 05:30:30;;;;;;;25.13;16.75;;;16.60;99.90;;;;;;5054105;28;20025;-73
2021/07/23 05:32:55;;;;;;;23.25;15.65;;;16.70;99.90;;;;;;5053985;28;20398;-73
2021/07/23 05:35:21;;;;;;;25.80;17.67;;;16.90;99.90;;;;;;5052891;28;20071;-78
2021/07/23 05:37:54;;;;;;;28.33;17.73;;;16.90;99.90;;;;;;5086654;22;20065;-74
2021/07/23 05:40:19;;;;;;;25.08;17.90;;;17.00;99.90;;;;;;5030714;28;20045;-74
2021/07/23 05:42:45;;;;;;;22.70;17.40;;;17.00;99.90;;;;;;5031395;28;20021;-73
2021/07/23 05:45:11;;;;;;;23.85;17.42;;;17.00;99.90;;;;;;5031099;28;20032;-78
2021/07/23 05:47:36;;;;;;;26.10;17.83;;;17.00;99.90;;;;;;5030421;28;20049;-79
2021/07/23 05:50:03;;;;;;;24.73;17.42;;;17.00;99.90;;;;;;5027592;28;20445;-78
2021/07/23 05:52:28;;;;;;;24.10;17.55;;;16.90;99.90;;;;;;5027531;28;20099;-78
2021/07/23 05:54:54;;;;;;;28.00;17.73;;;17.00;99.90;;;;;;5022469;28;20034;-78
2021/07/23 05:57:19;;;;;;;25.08;17.27;;;17.10;99.90;;;;;;5007758;28;20040;-79
2021/07/23 05:59:48;;;;;;;26.45;17.65;;;17.30;99.90;;;;;;5007356;28;20378;-79
2021/07/23 06:02:13;;;;;;;25.52;17.58;;;17.30;99.90;;;;;;5007334;28;20022;-78
2021/07/23 06:04:39;;;;;;;25.02;18.10;;;17.50;99.90;;;;;;5008122;28;20038;-78
2021/07/23 06:07:06;;;;;;;27.42;18.23;;;17.50;99.90;;;;;;5020646;28;20482;-78
2021/07/23 06:09:32;;;;;;;25.65;17.85;;;17.60;99.90;;;;;;5007329;28;20030;-78
2021/07/23 06:11:57;;;;;;;26.13;18.70;;;17.80;99.90;;;;;;5011889;28;20112;-78
2021/07/23 06:14:23;;;;;;;22.20;16.77;;;18.00;99.90;;;;;;5012518;28;20444;-73
2021/07/23 06:16:48;;;;;;;21.80;17.38;;;18.00;99.90;;;;;;5015276;28;20017;-72
2021/07/23 06:19:14;;;;;;;25.70;17.35;;;18.20;99.90;;;;;;5033059;28;20018;-73
2021/07/23 06:21:40;;;;;;;21.13;16.42;;;18.30;99.90;;;;;;5031695;28;20025;-72
2021/07/23 06:24:05;;;;;;;25.48;17.73;;;18.50;99.90;;;;;;5032931;28;20061;-73
2021/07/23 06:26:31;;;;;;;21.95;16.80;;;18.60;99.90;;;;;;5032942;28;20021;-73
2021/07/23 06:28:57;;;;;;;27.90;16.63;;;18.70;99.90;;;;;;5032906;28;20501;-73
2021/07/23 06:31:22;;;;;;;29.05;17.05;;;18.80;99.90;;;;;;5027164;28;20022;-78
2021/07/23 06:33:48;;;;;;;23.90;16.65;;;18.90;99.90;;;;;;5008510;28;20030;-78
2021/07/23 06:36:14;;;;;;;23.73;17.05;;;19.10;99.90;;;;;;5009441;28;20445;-78
2021/07/23 06:38:39;;;;;;;25.50;17.30;;;19.20;99.90;;;;;;5012503;28;20066;-78
2021/07/23 06:41:06;;;;;;;23.50;15.68;;;19.40;99.90;;;;;;5013050;28;20092;-78
2021/07/23 06:43:32;;;;;;;23.75;16.58;;;19.40;99.90;;;;;;5012357;28;20475;-73
2021/07/23 06:45:59;;;;;;;25.23;15.95;;;19.40;99.90;;;;;;4995437;28;20026;-73
2021/07/23 06:48:25;;;;;;;20.55;14.98;;;19.50;99.90;;;;;;5013146;28;20018;-73
2021/07/23 06:50:50;;;;;;;24.80;15.25;;;19.60;99.90;;;;;;5013867;28;20026;-73
2021/07/23 06:53:16;;;;;;;22.58;16.85;;;19.60;99.90;;;;;;5017334;28;20026;-73
2021/07/23 06:55:42;;;;;;;22.27;16.75;;;19.80;99.90;;;;;;5017083;28;20113;-73
2021/07/23 06:58:08;;;;;;;21.13;16.20;;;19.90;99.90;;;;;;5016897;28;20098;-74
2021/07/23 07:00:33;;;;;;;23.92;16.08;;;20.00;99.90;;;;;;5015505;28;20033;-74
2021/07/23 07:03:00;;;;;;;28.80;16.35;;;20.10;99.90;;;;;;5016915;28;20121;-74
2021/07/23 07:05:26;;;;;;;26.05;17.30;;;20.10;99.90;;;;;;5017382;28;20375;-74
2021/07/23 07:07:52;;;;;;;25.23;16.20;;;20.20;99.90;;;;;;5016673;28;20034;-74
2021/07/23 07:10:17;;;;;;;22.17;16.48;;;20.20;99.90;;;;;;5016649;28;20139;-74
2021/07/23 07:12:43;;;;;;;20.65;16.17;;;20.30;99.90;;;;;;5016662;28;20096;-74
2021/07/23 07:15:09;;;;;;;21.75;16.30;;;20.40;99.90;;;;;;5016556;28;20160;-73
2021/07/23 07:17:35;;;;;;;21.75;16.52;;;20.40;99.90;;;;;;5008515;28;20381;-73
2021/07/23 07:20:00;;;;;;;23.65;15.73;;;20.40;99.90;;;;;;5036320;28;20104;-73
2021/07/23 07:22:27;;;;;;;21.33;15.35;;;20.50;99.90;;;;;;5018326;28;20022;-74
2021/07/23 07:24:53;;;;;;;21.90;15.45;;;20.60;99.90;;;;;;5036359;28;20025;-74
2021/07/23 07:27:20;;;;;;;20.65;16.27;;;20.70;99.90;;;;;;5036266;28;20025;-74
2021/07/23 07:29:48;;;;;;;22.88;16.42;;;20.70;99.90;;;;;;5036691;28;20461;-74
2021/07/23 07:32:15;;;;;;;24.30;16.25;;;20.80;99.90;;;;;;5036326;28;20074;-74
2021/07/23 07:34:40;;;;;;;20.27;16.60;;;20.80;99.90;;;;;;5036072;28;20409;-74
2021/07/23 07:37:06;;;;;;;22.27;16.63;;;20.90;99.90;;;;;;5036165;28;20113;-74
2021/07/23 07:39:32;;;;;;;19.83;15.55;;;20.90;99.90;;;;;;5035779;28;20512;-74
2021/07/23 07:41:58;;;;;;;22.15;15.60;;;21.10;99.90;;;;;;5035888;28;20390;-74
2021/07/23 07:44:24;;;;;;;21.90;14.48;;;21.10;99.90;;;;;;5036152;28;20061;-74
2021/07/23 07:46:49;;;;;;;23.65;15.02;;;21.20;99.90;;;;;;5035723;28;20068;-74
2021/07/23 07:49:16;;;;;;;22.45;15.80;;;21.30;99.90;;;;;;5035716;28;20374;-74
2021/07/23 07:51:44;;;;;;;26.77;16.13;;;21.40;99.90;;;;;;5035807;28;20082;-73
2021/07/23 07:54:12;;;;;;;22.35;14.85;;;21.50;99.90;;;;;;5017604;28;20022;-73
2021/07/23 07:56:38;;;;;;;21.23;14.43;;;21.50;99.90;;;;;;5035703;28;20041;-73
2021/07/23 07:59:04;;;;;;;17.15;13.85;;;21.60;99.90;;;;;;5035490;28;20026;-74
2021/07/23 08:01:30;;;;;;;16.75;13.55;;;21.70;99.90;;;;;;5020602;28;20104;-79
2021/07/23 08:03:55;;;;;;;19.63;15.25;;;21.80;99.90;;;;;;5003171;28;20025;-78
2021/07/23 08:06:26;;;;;;;22.77;15.32;;;22.00;99.90;;;;;;5007838;28;20029;-78
2021/07/23 08:08:53;;;;;;;23.30;15.70;;;22.00;99.90;;;;;;5007166;28;20033;-78
2021/07/23 08:11:18;;;;;;;20.45;14.15;;;22.00;99.90;;;;;;5014501;28;20025;-78
2021/07/23 08:13:44;;;;;;;21.40;14.00;;;22.00;99.90;;;;;;5013628;28;20489;-78
2021/07/23 08:16:12;;;;;;;20.00;14.60;;;22.00;99.90;;;;;;5009489;28;20038;-79
2021/07/23 08:18:37;;;;;;;21.58;14.60;;;22.10;99.90;;;;;;5013929;28;20047;-79
2021/07/23 08:21:04;;;;;;;27.65;14.25;;;22.20;99.90;;;;;;5012318;28;20097;-79
2021/07/23 08:23:30;;;;;;;18.73;14.15;;;22.20;99.90;;;;;;5012722;28;20021;-80
2021/07/23 08:25:56;;;;;;;19.45;14.27;;;22.30;99.90;;;;;;5011526;28;20033;-81
2021/07/23 08:28:21;;;;;;;20.48;13.68;;;22.40;99.90;;;;;;5004659;28;20029;-81
2021/07/23 08:30:48;;;;;;;22.02;13.95;;;22.40;99.90;;;;;;5010839;28;20041;-81
2021/07/23 08:33:13;;;;;;;19.35;14.02;;;22.50;99.90;;;;;;5006687;28;20049;-81
2021/07/23 08:35:41;;;;;;;20.25;12.93;;;22.60;99.90;;;;;;4992415;28;20033;-81
2021/07/23 08:38:06;;;;;;;18.65;13.38;;;22.60;99.90;;;;;;4998006;28;20410;-81
2021/07/23 08:40:33;;;;;;;20.25;13.68;;;22.60;99.90;;;;;;5015653;28;20037;-81
2021/07/23 08:43:00;;;;;;;21.35;14.50;;;22.80;99.90;;;;;;4996024;28;20022;-81
2021/07/23 08:45:26;;;;;;;19.48;13.10;;;22.80;99.90;;;;;;5013200;28;20037;-81
2021/07/23 08:47:52;;;;;;;16.60;13.35;;;22.90;99.90;;;;;;5022181;28;20040;-81
2021/07/23 08:50:18;;;;;;;19.90;13.73;;;22.90;99.90;;;;;;5012237;28;20467;-82
2021/07/23 08:52:44;;;;;;;17.92;12.38;;;22.90;99.90;;;;;;5012980;28;20026;-81
2021/07/23 08:55:12;;;;;;;19.95;13.15;;;23.00;99.90;;;;;;5014995;28;20030;-82
2021/07/23 08:57:38;;;;;;;22.48;13.60;;;23.10;99.90;;;;;;5014362;28;20138;-79
2021/07/23 09:00:11;;;;;;;21.10;13.30;;;23.10;99.90;;;;;;5013543;28;20470;-79
2021/07/23 09:02:53;;;;;;;19.80;12.52;;;23.30;99.90;;;;;;5010151;28;20117;-79
2021/07/23 09:05:29;;;;;;;20.30;13.55;;;23.30;99.90;;;;;;5014353;28;20482;-79
2021/07/23 09:08:11;;;;;;;17.55;13.35;;;23.40;99.90;;;;;;5020399;28;20029;-74
2021/07/23 09:10:38;;;;;;;19.42;12.77;;;23.50;99.90;;;;;;5012199;28;20033;-80
2021/07/23 09:13:06;;;;;;;20.40;13.40;;;23.50;99.90;;;;;;5014839;28;20033;-79
2021/07/23 09:15:41;;;;;;;26.27;13.02;;;23.50;99.90;;;;;;5011182;28;20049;-80
2021/07/23 09:18:18;;;;;;;18.65;12.65;;;23.60;99.90;;;;;;5010946;28;20569;-79
2021/07/23 09:20:56;;;;;;;24.70;12.93;;;23.70;99.90;;;;;;5014268;28;20093;-79
2021/07/23 09:23:46;;;;;;;17.23;13.00;;;23.80;99.90;;;;;;5018905;28;20485;-79
2021/07/23 09:26:16;;;;;;;17.13;12.65;;;23.90;99.90;;;;;;5017213;28;20048;-79
2021/07/23 09:28:44;;;;;;;18.25;12.38;;;24.00;99.90;;;;;;5016976;28;20022;-79
2021/07/23 09:31:28;;;;;;;22.65;13.30;;;24.10;99.90;;;;;;5012690;28;20032;-79
2021/07/23 09:33:54;;;;;;;17.75;12.10;;;24.30;99.90;;;;;;5016973;28;20022;-79
2021/07/23 09:36:20;;;;;;;17.40;12.30;;;24.40;99.90;;;;;;5015238;28;20058;-79
2021/07/23 09:38:47;;;;;;;22.10;12.70;;;24.60;99.90;;;;;;5019661;28;20076;-74
2021/07/23 09:41:25;;;;;;;21.27;11.98;;;24.60;99.90;;;;;;5021683;28;20034;-74
2021/07/23 09:44:13;;;;;;;22.90;12.25;;;24.70;99.90;;;;;;5022209;28;20026;-74
2021/07/23 09:46:44;;;;;;;18.23;13.18;;;24.90;99.90;;;;;;5025065;28;20185;-72
2021/07/23 09:49:24;;;;;;;19.00;13.23;;;25.00;99.90;;;;;;5017279;28;20098;-73
2021/07/23 09:51:51;;;;;;;23.10;12.75;;;25.10;99.90;;;;;;5000646;28;20480;-79
2021/07/23 09:54:20;;;;;;;16.63;12.15;;;25.40;99.90;;;;;;5024160;28;20033;-74
2021/07/23 09:56:47;;;;;;;17.45;12.88;;;25.50;99.90;;;;;;5021546;28;20366;-75
2021/07/23 09:59:17;;;;;;;17.63;12.25;;;25.60;99.90;;;;;;5022928;28;20026;-75
2021/07/23 10:01:45;;;;;;;16.17;11.82;;;25.70;99.90;;;;;;5026125;28;20099;-74
2021/07/23 10:04:26;;;;;;;19.77;12.48;;;26.00;99.90;;;;;;5019310;28;20022;-74
2021/07/23 10:07:00;;;;;;;21.67;12.93;;;26.00;99.90;;;;;;5026945;28;20482;-77
2021/07/23 10:09:29;;;;;;;17.30;11.43;;;26.10;99.90;;;;;;5013770;28;20031;-78
2021/07/23 10:11:56;;;;;;;26.35;12.70;;;26.40;99.90;;;;;;5018106;28;20493;-74
2021/07/23 10:14:27;;;;;;;16.35;11.57;;;26.70;99.90;;;;;;5015634;28;20017;-78
2021/07/23 10:16:53;;;;;;;20.15;12.05;;;27.00;99.90;;;;;;5020769;28;20021;-79
2021/07/23 10:19:23;;;;;;;19.35;11.48;;;27.00;99.90;;;;;;5009739;28;20029;-79
2021/07/23 10:21:55;;;;;;;18.10;12.40;;;27.00;99.90;;;;;;5012219;28;20022;-79
2021/07/23 10:24:21;;;;;;;14.82;11.02;;;27.20;99.90;;;;;;5019498;28;20025;-79
2021/07/23 10:26:47;;;;;;;15.80;11.35;;;27.30;99.90;;;;;;5016262;28;20037;-74
2021/07/23 10:29:12;;;;;;;18.02;11.68;;;27.50;99.90;;;;;;5021730;28;20037;-74
2021/07/23 10:31:39;;;;;;;16.55;11.50;;;27.80;99.90;;;;;;5019435;28;20025;-74
2021/07/23 10:34:06;;;;;;;14.45;11.70;;;27.70;99.90;;;;;;5012463;28;20026;-73
2021/07/23 10:36:32;;;;;;;14.48;11.10;;;28.00;99.90;;;;;;5019730;28;20374;-75
2021/07/23 10:39:09;;;;;;;13.80;10.85;;;28.00;99.90;;;;;;5026484;28;20045;-74
2021/07/23 10:41:45;;;;;;;15.45;10.50;;;28.30;99.90;;;;;;5019594;28;20022;-77
2021/07/23 10:44:33;;;;;;;16.35;10.45;;;28.20;99.90;;;;;;5011141;28;20025;-78
2021/07/23 10:46:59;;;;;;;18.13;11.48;;;28.20;99.90;;;;;;5014237;28;20049;-80
2021/07/23 10:49:25;;;;;;;21.23;11.73;;;28.20;99.90;;;;;;5016453;28;20043;-76
2021/07/23 10:51:52;;;;;;;12.38;10.55;;;28.50;99.90;;;;;;5021583;28;20561;-79
2021/07/23 10:54:20;;;;;;;15.27;10.45;;;28.60;99.90;;;;;;5020682;28;20021;-74
2021/07/23 10:56:58;;;;;;;16.17;10.30;;;28.80;99.90;;;;;;5016018;28;20034;-74
2021/07/23 10:59:39;;;;;;;15.43;10.23;;;29.10;99.90;;;;;;5012953;28;20037;-76
2021/07/23 11:02:10;;;;;;;16.17;10.65;;;29.40;99.90;;;;;;5013497;28;20025;-75
2021/07/23 11:04:39;;;;;;;17.20;10.63;;;29.40;99.90;;;;;;5017690;28;20029;-75
2021/07/23 11:07:06;;;;;;;15.20;10.25;;;29.40;99.90;;;;;;5013214;28;20040;-75
2021/07/23 11:09:34;;;;;;;13.88;10.20;;;29.00;99.80;;;;;;5013883;28;20134;-75
2021/07/23 11:12:20;;;;;;;13.70;9.55;;;28.60;99.90;;;;;;5011407;28;20359;-75
2021/07/23 11:14:52;;;;;;;13.50;9.43;;;28.60;99.50;;;;;;4999949;28;20079;-75
2021/07/23 11:17:18;;;;;;;15.40;9.70;;;28.60;98.40;;;;;;5011134;28;20021;-75
2021/07/23 11:19:52;;;;;;;11.75;9.65;;;28.80;98.10;;;;;;5012067;28;20052;-75
2021/07/23 11:22:36;;;;;;;12.68;9.52;;;29.10;98.20;;;;;;5013377;28;20021;-74
2021/07/23 11:25:09;;;;;;;15.32;9.73;;;29.20;97.10;;;;;;5014288;28;20512;-75
2021/07/23 11:27:41;;;;;;;17.02;10.05;;;29.80;96.80;;;;;;5016768;28;20113;-74
2021/07/23 11:30:23;;;;;;;9.60;8.13;;;29.90;93.00;;;;;;5016932;28;20021;-74
2021/07/23 11:32:53;;;;;;;11.40;9.48;;;30.10;93.50;;;;;;5021143;28;20486;-74
2021/07/23 11:35:21;;;;;;;11.90;8.95;;;29.80;96.00;;;;;;5007392;28;20041;-75
2021/07/23 11:37:48;;;;;;;14.93;9.32;;;29.80;93.70;;;;;;5009933;28;20539;-76
2021/07/23 11:40:18;;;;;;;10.73;9.40;;;29.60;93.50;;;;;;5012699;28;20021;-75
2021/07/23 11:42:50;;;;;;;15.68;10.40;;;30.00;94.30;;;;;;5014889;28;20029;-76
2021/07/23 11:45:20;;;;;;;12.98;9.98;;;30.20;93.40;;;;;;5018969;28;20541;-75
2021/07/23 11:47:48;;;;;;;13.60;9.88;;;30.00;93.40;;;;;;5022817;28;20048;-75
2021/07/23 11:50:20;;;;;;;12.55;9.95;;;29.70;93.70;;;;;;5018783;28;20034;-75
2021/07/23 11:52:46;;;;;;;13.27;10.35;;;29.80;94.10;;;;;;5023324;28;20025;-75
2021/07/23 11:55:14;;;;;;;17.63;10.93;;;29.60;96.70;;;;;;5018808;28;20108;-75
2021/07/23 11:57:40;;;;;;;15.32;9.77;;;29.70;93.50;;;;;;5014934;28;20112;-75
2021/07/23 12:00:29;;;;;;;14.02;9.80;;;29.80;94.90;;;;;;5015107;28;20018;-76
2021/07/23 12:02:56;;;;;;;14.10;10.13;;;29.90;94.70;;;;;;5019239;28;20026;-75
2021/07/23 12:05:23;;;;;;;13.00;9.82;;;29.90;92.90;;;;;;5017946;28;20482;-75
2021/07/23 12:07:59;;;;;;;14.80;10.30;;;29.70;91.20;;;;;;5017618;28;20030;-75
2021/07/23 12:10:27;;;;;;;13.70;9.40;;;29.50;93.10;;;;;;5016127;28;20094;-75
2021/07/23 12:12:53;;;;;;;15.10;10.52;;;29.50;93.50;;;;;;5018193;28;20026;-75
2021/07/23 12:15:20;;;;;;;12.77;9.77;;;29.30;93.60;;;;;;4999466;28;20111;-75
2021/07/23 12:17:47;;;;;;;13.20;9.57;;;29.00;93.90;;;;;;5011695;28;20038;-75
2021/07/23 12:20:14;;;;;;;13.25;10.05;;;28.90;94.80;;;;;;4998576;28;20651;-75
2021/07/23 12:22:40;;;;;;;17.60;9.73;;;29.00;95.00;;;;;;5014297;28;20033;-75
2021/07/23 12:25:22;;;;;;;12.55;9.32;;;29.40;92.40;;;;;;5014454;28;20059;-75
2021/07/23 12:28:10;;;;;;;11.52;8.70;;;29.80;92.00;;;;;;5014632;28;20033;-75
2021/07/23 12:30:37;;;;;;;12.32;9.25;;;29.80;92.40;;;;;;5013989;28;20117;-75